createdAt,value
2022-09-04T10:36:31.009Z,29.60
2022-09-04T10:41:15.060Z,27.40
2022-09-04T10:45:46.401Z,26.50
2022-09-04T10:50:22.268Z,26.20
2022-09-04T10:55:04.332Z,27.50
2022-09-04T10:59:59.274Z,27.40
2022-09-04T11:04:45.865Z,29.30
2022-09-04T11:09:50.059Z,27.00
2022-09-04T11:14:28.932Z,25.10
2022-09-04T11:19:04.400Z,26.90
2022-09-04T11:23:42.775Z,27.10
2022-09-04T11:28:15.895Z,27.20
2022-09-04T11:33:04.202Z,30.50
2022-09-04T11:37:37.967Z,30.60
2022-09-04T11:42:20.502Z,29.60
2022-09-04T11:47:34.972Z,31.50
2022-09-04T11:52:07.962Z,31.20
2022-09-04T11:57:02.585Z,32.00
2022-09-04T12:01:32.180Z,31.70
2022-09-04T12:06:11.351Z,27.60
2022-09-04T12:10:44.792Z,26.60
2022-09-04T12:15:27.082Z,26.00
2022-09-04T12:19:50.644Z,25.80
2022-09-04T12:24:31.018Z,27.10
2022-09-04T12:29:11.011Z,29.10
2022-09-04T12:34:01.693Z,27.10
2022-09-04T12:38:27.992Z,25.70
2022-09-04T12:43:00.149Z,25.50
2022-09-04T12:47:41.635Z,25.20
2022-09-04T12:52:21.951Z,25.30
2022-09-04T12:56:41.426Z,25.40
2022-09-04T13:01:32.239Z,26.00
2022-09-04T13:06:15.378Z,26.60
2022-09-04T13:10:54.416Z,25.90
2022-09-04T13:15:36.559Z,25.80
2022-09-04T13:20:20.493Z,25.90
2022-09-04T13:25:02.686Z,27.30
2022-09-04T13:29:44.432Z,27.80
2022-09-04T13:34:13.954Z,27.50
2022-09-04T13:39:07.751Z,26.70
2022-09-04T13:43:49.662Z,26.80
2022-09-04T13:48:12.353Z,28.30
2022-09-04T13:52:46.216Z,30.20
2022-09-04T13:57:10.594Z,28.90
2022-09-04T14:01:29.867Z,30.90
2022-09-04T14:05:50.206Z,31.00
2022-09-04T14:10:22.853Z,31.90
2022-09-04T14:15:02.198Z,29.30
2022-09-04T14:19:32.136Z,27.20
2022-09-04T14:24:08.159Z,27.00
2022-09-04T14:29:11.115Z,27.80
2022-09-04T14:33:51.302Z,28.10
2022-09-04T14:38:36.405Z,29.50
2022-09-04T14:43:08.453Z,27.80
2022-09-04T14:47:33.384Z,26.80
2022-09-04T14:51:56.547Z,26.50
2022-09-04T14:56:19.452Z,26.20
2022-09-04T15:01:03.293Z,26.40
2022-09-04T15:05:34.161Z,26.00
2022-09-04T15:09:54.731Z,25.90
2022-09-04T15:14:33.127Z,25.80
2022-09-04T15:19:31.066Z,25.70
2022-09-04T15:24:09.610Z,25.70
2022-09-04T15:28:49.996Z,26.40
2022-09-04T15:33:11.485Z,26.40
2022-09-04T15:37:29.015Z,25.90
2022-09-04T15:41:49.923Z,25.90
2022-09-04T15:46:25.498Z,26.00
2022-09-04T15:51:18.864Z,25.90
2022-09-04T15:55:39.237Z,26.00
2022-09-04T16:00:00.591Z,25.80
2022-09-04T16:04:33.552Z,25.40
2022-09-04T16:08:58.956Z,25.00
2022-09-04T16:13:25.482Z,24.80
2022-09-04T16:17:47.768Z,24.60
2022-09-04T16:22:07.274Z,24.50
2022-09-04T16:26:28.843Z,24.30
2022-09-04T16:31:10.531Z,24.20
2022-09-04T16:35:34.555Z,23.90
2022-09-04T16:40:12.978Z,23.80
2022-09-04T16:44:53.707Z,23.60
2022-09-04T16:49:36.743Z,23.50
2022-09-04T16:54:32.145Z,23.30
2022-09-04T16:58:54.949Z,23.10
2022-09-04T17:03:26.412Z,22.90
2022-09-04T17:08:07.641Z,22.70
2022-09-04T17:12:57.716Z,22.60
2022-09-04T17:17:30.655Z,22.30
2022-09-04T17:28:59.006Z,22.10
2022-09-04T17:29:09.937Z,21.70
2022-09-04T17:32:33.661Z,21.40
2022-09-04T17:40:54.604Z,21.20
2022-09-04T17:42:04.514Z,20.90
2022-09-04T17:47:09.935Z,20.60
2022-09-04T17:51:32.102Z,20.30
2022-09-04T17:55:58.358Z,20.00
2022-09-04T18:00:25.983Z,19.80
2022-09-04T18:04:57.674Z,19.50
2022-09-04T18:09:26.493Z,19.20
2022-09-04T18:14:31.960Z,19.10
2022-09-04T18:18:55.405Z,18.80
2022-09-04T18:23:23.680Z,18.70
2022-09-04T18:28:11.746Z,18.60
2022-09-04T18:37:22.868Z,18.50
2022-09-04T18:37:47.342Z,18.40
2022-09-04T18:50:32.099Z,18.20
2022-09-04T18:50:40.153Z,18.30
2022-09-04T18:52:00.478Z,18.30
2022-09-04T18:56:23.012Z,18.20
2022-09-04T19:00:54.995Z,18.20
2022-09-04T19:05:15.806Z,18.20
2022-09-04T19:10:05.336Z,18.20
2022-09-04T19:14:28.706Z,18.00
2022-09-04T19:19:34.249Z,18.00
2022-09-04T19:24:05.219Z,17.90
2022-09-04T19:28:28.553Z,17.80
2022-09-04T19:33:15.748Z,17.80
2022-09-04T19:40:39.762Z,17.70
2022-09-04T19:46:07.639Z,17.60
2022-09-04T19:47:49.052Z,17.50
2022-09-04T19:53:23.933Z,17.40
2022-09-04T19:57:32.539Z,17.40
2022-09-04T20:02:03.028Z,17.40
2022-09-04T20:06:34.804Z,17.40
2022-09-04T20:11:00.931Z,17.40
2022-09-04T20:15:25.978Z,17.40
2022-09-04T20:19:52.735Z,17.40
2022-09-04T20:24:21.936Z,17.30
2022-09-04T20:29:11.257Z,17.20
2022-09-04T20:33:31.704Z,17.10
2022-09-04T20:37:58.978Z,17.10
2022-09-04T20:42:46.476Z,17.00
2022-09-04T20:52:42.254Z,16.90
2022-09-04T20:52:55.882Z,16.90
2022-09-04T20:58:50.970Z,16.60
2022-09-04T21:03:22.526Z,16.50
2022-09-04T21:07:07.675Z,16.30
2022-09-04T21:11:39.246Z,16.20
2022-09-04T21:16:31.732Z,16.20
2022-09-04T21:20:59.829Z,16.10
2022-09-04T21:25:31.520Z,15.90
2022-09-04T21:30:14.521Z,15.60
2022-09-04T21:35:02.242Z,15.50
2022-09-04T21:39:28.785Z,15.30
2022-09-04T21:43:59.957Z,15.30
2022-09-04T21:48:58.325Z,15.10
2022-09-04T21:53:48.868Z,15.10
2022-09-04T22:02:39.895Z,15.00
2022-09-04T22:03:49.885Z,15.10
2022-09-04T22:13:08.359Z,15.00
2022-09-04T22:13:47.902Z,14.90
2022-09-04T22:18:46.140Z,14.80
2022-09-04T22:23:47.300Z,14.70
2022-09-04T22:28:31.553Z,14.60
2022-09-04T22:32:51.798Z,14.50
2022-09-04T22:37:27.294Z,14.50
2022-09-04T22:42:09.105Z,14.50
2022-09-04T22:46:46.270Z,14.50
2022-09-04T22:51:40.966Z,14.40
2022-09-04T22:56:22.573Z,14.30
2022-09-04T23:01:06.461Z,14.30
2022-09-04T23:05:42.971Z,14.20
2022-09-04T23:13:46.185Z,14.10
2022-09-04T23:15:09.064Z,14.10
2022-09-04T23:26:37.383Z,14.00
2022-09-04T23:26:52.824Z,14.10
2022-09-04T23:29:41.033Z,14.10
2022-09-04T23:34:07.895Z,13.90
2022-09-04T23:38:27.822Z,13.80
2022-09-04T23:43:12.224Z,13.70
2022-09-04T23:47:48.349Z,13.60
2022-09-04T23:52:32.101Z,13.50
2022-09-04T23:56:57.427Z,13.40
